Time;durP1;ratioP1;P1;durP2;ratioP2;P2;SDS_P1;SDS_P2;PMS_P1;PMS_P2;Temp;Humidity;BMP_temperature;BMP_pressure;BME280_temperature;BME280_humidity;BME280_pressure;Samples;Min_cycle;Max_cycle;Signal;HPM_P1;HPM_P2
2021/09/20 00:00:06;;;;;;;4.13;1.50;;;;;;;13.02;70.54;102031.56;10201468;28;20100;-70
2021/09/20 00:05:05;;;;;;;4.10;1.65;;;;;;;13.02;70.73;102034.31;10199922;28;20050;-72
2021/09/20 00:10:04;;;;;;;4.60;1.42;;;;;;;13.00;70.78;102039.28;10201294;28;20104;-72
2021/09/20 00:15:00;;;;;;;5.63;1.85;;;;;;;12.99;71.47;102026.66;10199584;28;20120;-71
2021/09/20 00:19:57;;;;;;;4.03;1.50;;;;;;;12.95;71.15;102029.22;10200301;28;20054;-70
2021/09/20 00:24:53;;;;;;;5.05;1.60;;;;;;;12.89;71.23;102032.34;10199388;28;20045;-71
2021/09/20 00:29:52;;;;;;;4.85;1.50;;;;;;;12.90;70.98;102036.72;10199267;28;20081;-71
2021/09/20 00:34:48;;;;;;;4.32;1.50;;;;;;;12.90;71.27;102040.25;10198560;28;20038;-70
2021/09/20 00:39:45;;;;;;;8.60;1.85;;;;;;;12.83;71.02;102034.34;10198769;28;20073;-71
2021/09/20 00:44:41;;;;;;;4.18;1.42;;;;;;;12.76;71.00;102042.97;10198735;28;20080;-70
2021/09/20 00:49:38;;;;;;;6.32;1.48;;;;;;;12.79;71.45;102045.13;10198539;28;20078;-71
2021/09/20 00:54:34;;;;;;;4.95;1.58;;;;;;;12.78;71.24;102038.00;10198510;28;20081;-70
2021/09/20 00:59:30;;;;;;;4.05;1.67;;;;;;;12.77;71.65;102047.34;10198428;28;20080;-71
2021/09/20 01:09:28;;;;;;;4.50;1.60;;;;;;;12.68;71.58;102043.66;10136317;28;20676;-70
2021/09/20 01:14:25;;;;;;;3.95;1.33;;;;;;;12.72;72.01;102039.22;10149390;28;20046;-70
2021/09/20 01:19:21;;;;;;;3.42;1.52;;;;;;;12.73;71.83;102040.03;10160574;28;20050;-71
2021/09/20 01:24:17;;;;;;;8.38;2.10;;;;;;;12.73;72.00;102040.84;10155904;28;20049;-70
2021/09/20 01:29:14;;;;;;;4.20;1.65;;;;;;;12.68;71.07;102048.34;10156433;28;20473;-70
2021/09/20 01:34:10;;;;;;;4.90;1.65;;;;;;;12.64;71.06;102046.19;10146754;28;20081;-70
2021/09/20 01:39:22;;;;;;;4.35;1.60;;;;;;;12.63;70.84;102054.72;10151906;28;20097;-69
2021/09/20 01:44:19;;;;;;;2.95;1.40;;;;;;;12.51;70.21;102055.19;10151751;28;20543;-71
2021/09/20 01:49:17;;;;;;;3.90;1.60;;;;;;;12.57;70.69;102058.66;10150881;28;20042;-70
2021/09/20 01:54:14;;;;;;;4.65;1.63;;;;;;;12.61;71.04;102052.28;10149268;28;20077;-69
2021/09/20 01:59:10;;;;;;;3.55;1.60;;;;;;;12.58;71.05;102049.34;10145882;28;20124;-69
2021/09/20 02:04:07;;;;;;;5.97;2.03;;;;;;;12.52;70.56;102045.03;10150830;28;20073;-70
2021/09/20 02:09:08;;;;;;;2.83;1.15;;;;;;;12.53;70.90;102044.75;10148976;28;20092;-71
2021/09/20 02:14:05;;;;;;;3.42;1.38;;;;;;;12.50;70.59;102041.78;10150662;28;20042;-70
2021/09/20 02:19:02;;;;;;;5.60;1.60;;;;;;;12.48;70.67;102038.50;10157515;28;20160;-71
2021/09/20 02:23:58;;;;;;;5.82;1.50;;;;;;;12.46;70.93;102036.06;10149639;28;20085;-70
2021/09/20 02:28:55;;;;;;;4.85;1.67;;;;;;;12.48;70.95;102038.50;10154217;28;20109;-70
2021/09/20 02:33:51;;;;;;;5.75;1.67;;;;;;;12.46;70.83;102046.22;10148693;28;20544;-69
2021/09/20 02:38:48;;;;;;;4.55;1.88;;;;;;;12.48;71.20;102046.72;10151655;28;20104;-70
2021/09/20 02:43:45;;;;;;;4.30;1.55;;;;;;;12.47;71.33;102045.13;10146565;28;20074;-70
2021/09/20 02:48:42;;;;;;;7.97;2.03;;;;;;;12.43;71.64;102053.91;10153258;28;20133;-69
2021/09/20 02:53:38;;;;;;;6.07;1.85;;;;;;;12.40;71.46;102057.28;10147084;28;20046;-70
2021/09/20 02:58:35;;;;;;;4.10;1.73;;;;;;;12.42;72.39;102056.97;10143360;28;20066;-70
2021/09/20 03:03:31;;;;;;;4.32;1.70;;;;;;;12.42;71.74;102062.47;10141017;28;20113;-69
2021/09/20 03:08:28;;;;;;;3.38;1.63;;;;;;;12.38;71.65;102064.97;10128670;28;20046;-70
2021/09/20 03:13:24;;;;;;;3.83;1.55;;;;;;;12.40;72.28;102071.00;10141467;28;20045;-69
2021/09/20 03:18:21;;;;;;;6.57;2.00;;;;;;;12.41;72.13;102067.13;10150699;28;20050;-70
2021/09/20 03:23:17;;;;;;;4.57;1.77;;;;;;;12.42;72.00;102068.75;10136569;28;20101;-71
2021/09/20 03:28:14;;;;;;;6.28;1.58;;;;;;;12.33;71.64;102070.53;10151313;28;20104;-71
2021/09/20 03:33:10;;;;;;;4.45;1.67;;;;;;;12.32;71.96;102077.16;10150912;28;20042;-70
2021/09/20 03:38:07;;;;;;;4.22;1.77;;;;;;;12.28;71.96;102073.38;10142254;28;20070;-71
2021/09/20 03:43:03;;;;;;;10.85;2.22;;;;;;;12.27;72.38;102077.19;10145704;28;20050;-70
2021/09/20 03:48:00;;;;;;;5.82;2.17;;;;;;;12.31;72.14;102078.25;10141605;28;20073;-70
2021/09/20 03:52:56;;;;;;;6.68;1.90;;;;;;;12.29;72.20;102085.97;10143583;28;20086;-70
2021/09/20 03:57:53;;;;;;;5.32;1.90;;;;;;;12.29;72.58;102080.47;10147710;28;20112;-70
2021/09/20 04:02:49;;;;;;;5.78;2.15;;;;;;;12.26;72.25;102075.59;10152572;28;20532;-69
2021/09/20 04:07:48;;;;;;;6.18;2.20;;;;;;;12.19;72.16;102080.63;10147106;28;20508;-68
2021/09/20 04:12:44;;;;;;;7.35;2.70;;;;;;;12.21;72.80;102086.63;10137418;28;20047;-70
2021/09/20 04:17:41;;;;;;;10.63;3.80;;;;;;;12.21;72.77;102089.38;10150417;28;20488;-70
2021/09/20 04:22:38;;;;;;;5.53;2.33;;;;;;;12.22;72.54;102096.47;10156941;28;20725;-70
2021/09/20 04:27:34;;;;;;;5.75;2.50;;;;;;;12.21;71.86;102106.63;10154973;28;20039;-70
2021/09/20 04:32:32;;;;;;;4.88;3.00;;;;;;;12.21;72.54;102095.66;10142742;28;20047;-70
2021/09/20 04:37:28;;;;;;;9.77;3.30;;;;;;;12.20;72.71;102109.66;10145655;28;20476;-70
2021/09/20 04:42:24;;;;;;;5.90;2.85;;;;;;;12.17;73.15;102113.00;10158447;28;20100;-69
2021/09/20 04:47:21;;;;;;;5.78;2.65;;;;;;;12.17;72.90;102110.25;10152844;28;20042;-70
2021/09/20 04:52:17;;;;;;;6.75;3.00;;;;;;;12.13;72.80;102122.91;10159408;28;20047;-71
2021/09/20 04:57:14;;;;;;;5.38;3.10;;;;;;;12.10;72.92;102120.78;10151379;28;20514;-71
2021/09/20 05:02:11;;;;;;;5.03;2.97;;;;;;;12.04;73.97;102116.47;10157935;28;20104;-69
2021/09/20 05:07:07;;;;;;;7.55;2.88;;;;;;;12.06;73.71;102126.00;10152570;28;20050;-70
2021/09/20 05:12:04;;;;;;;6.70;2.78;;;;;;;12.06;73.43;102125.22;10158749;28;20046;-70
2021/09/20 05:17:03;;;;;;;6.35;3.10;;;;;;;12.07;73.47;102143.28;10142613;28;20038;-70
2021/09/20 05:22:00;;;;;;;7.90;3.17;;;;;;;12.09;73.26;102141.06;10156065;28;20046;-68
2021/09/20 05:26:57;;;;;;;5.13;2.60;;;;;;;12.03;72.83;102143.06;10151585;28;20085;-70
2021/09/20 05:31:53;;;;;;;4.45;2.22;;;;;;;12.05;72.97;102145.53;10144317;28;20059;-70
2021/09/20 05:36:53;;;;;;;7.00;2.92;;;;;;;12.08;73.20;102150.41;10145317;28;20038;-70
2021/09/20 05:41:49;;;;;;;7.80;3.05;;;;;;;12.12;72.95;102154.19;10152744;28;20046;-70
2021/09/20 05:46:46;;;;;;;7.32;2.65;;;;;;;12.10;72.66;102153.69;10153594;28;20096;-71
2021/09/20 05:51:42;;;;;;;6.35;2.47;;;;;;;12.09;72.78;102152.88;10122086;28;20058;-71
2021/09/20 05:56:39;;;;;;;5.72;2.95;;;;;;;12.10;72.71;102148.19;10143316;28;20109;-69
2021/09/20 06:01:35;;;;;;;7.03;3.08;;;;;;;12.15;73.01;102157.16;10155598;28;20077;-70
2021/09/20 06:06:32;;;;;;;7.55;3.00;;;;;;;12.21;72.42;102166.16;10142322;28;20085;-70
2021/09/20 06:11:28;;;;;;;6.60;2.80;;;;;;;12.22;72.71;102165.03;10156374;28;20078;-69
2021/09/20 06:16:25;;;;;;;5.07;2.17;;;;;;;12.27;72.80;102159.47;10141772;28;20042;-70
2021/09/20 06:21:22;;;;;;;6.80;2.40;;;;;;;12.34;73.19;102165.41;10157238;28;20058;-70
2021/09/20 06:26:18;;;;;;;4.88;2.53;;;;;;;12.38;72.38;102166.47;10148131;28;20077;-70
2021/09/20 06:31:15;;;;;;;6.10;2.50;;;;;;;12.46;72.03;102166.91;10155520;28;20469;-70
2021/09/20 06:36:11;;;;;;;8.88;2.70;;;;;;;12.49;72.18;102171.84;10142780;28;20042;-70
2021/09/20 06:41:08;;;;;;;6.75;2.35;;;;;;;12.51;72.42;102173.16;10158725;28;20073;-68
2021/09/20 06:46:04;;;;;;;7.25;2.75;;;;;;;12.51;72.34;102172.31;10142491;28;20049;-69
2021/09/20 06:51:01;;;;;;;6.50;2.45;;;;;;;12.55;71.80;102165.13;10143055;28;20484;-69
2021/09/20 06:55:57;;;;;;;6.22;2.88;;;;;;;12.63;72.31;102172.72;10130526;28;20047;-69
2021/09/20 07:00:54;;;;;;;4.93;2.53;;;;;;;12.69;72.61;102171.50;10146078;28;20046;-70
2021/09/20 07:05:50;;;;;;;6.43;3.17;;;;;;;12.78;72.50;102183.47;10141194;28;20046;-70
2021/09/20 07:10:47;;;;;;;7.35;3.08;;;;;;;12.78;72.44;102188.94;10154332;28;20069;-70
2021/09/20 07:15:43;;;;;;;4.63;2.80;;;;;;;12.88;72.58;102179.78;10138602;28;20516;-69
2021/09/20 07:20:40;;;;;;;9.75;3.17;;;;;;;12.92;71.74;102179.97;10153305;28;20042;-70
2021/09/20 07:25:37;;;;;;;9.57;3.15;;;;;;;12.94;72.08;102183.25;10138673;28;20061;-71
2021/09/20 07:30:34;;;;;;;6.45;3.05;;;;;;;12.96;72.15;102175.53;10115124;28;20086;-70
2021/09/20 07:35:31;;;;;;;4.53;2.70;;;;;;;13.05;71.97;102184.72;10121038;28;20059;-71
2021/09/20 07:40:28;;;;;;;8.32;3.03;;;;;;;12.98;71.92;102187.03;10159419;28;20066;-70
2021/09/20 07:45:25;;;;;;;4.30;2.63;;;;;;;13.03;71.93;102198.75;10155166;28;20057;-71
2021/09/20 07:50:22;;;;;;;5.95;3.13;;;;;;;13.11;71.64;102194.53;10147663;28;20475;-71
2021/09/20 07:55:19;;;;;;;5.32;2.35;;;;;;;13.17;70.52;102198.78;10149600;28;20077;-70
2021/09/20 08:00:21;;;;;;;6.13;3.08;;;;;;;13.14;69.02;102207.63;10164377;28;20056;-70
2021/09/20 08:05:17;;;;;;;6.72;3.22;;;;;;;13.20;68.37;102220.16;10155881;28;20361;-70
2021/09/20 08:10:14;;;;;;;6.25;3.03;;;;;;;13.23;69.04;102219.56;10158361;28;20475;-71
2021/09/20 08:15:12;;;;;;;5.18;2.47;;;;;;;13.21;68.40;102216.31;10148948;28;20077;-71
2021/09/20 08:20:10;;;;;;;8.15;2.45;;;;;;;13.34;69.04;102219.44;10163435;28;20064;-70
2021/09/20 08:25:08;;;;;;;6.72;2.88;;;;;;;13.46;69.08;102222.53;10145970;28;20100;-71
2021/09/20 08:30:05;;;;;;;5.90;2.60;;;;;;;13.52;69.56;102224.06;10159294;28;20051;-71
2021/09/20 08:35:02;;;;;;;5.55;2.60;;;;;;;13.72;69.76;102231.16;10136568;28;20113;-70
2021/09/20 08:39:59;;;;;;;4.57;2.65;;;;;;;13.91;68.88;102233.84;10161586;28;20042;-71
2021/09/20 08:44:56;;;;;;;8.80;2.50;;;;;;;14.00;67.92;102237.50;10153204;28;20046;-70
2021/09/20 08:49:53;;;;;;;7.20;3.38;;;;;;;14.06;66.41;102240.97;10148542;28;20074;-69
2021/09/20 08:54:53;;;;;;;8.68;3.33;;;;;;;14.10;67.07;102242.00;10149875;28;20050;-71
2021/09/20 08:59:50;;;;;;;6.53;2.92;;;;;;;14.16;66.90;102245.47;10157592;28;20667;-71
2021/09/20 09:04:46;;;;;;;7.53;2.72;;;;;;;14.22;67.18;102249.75;10135288;28;20075;-71
2021/09/20 09:09:48;;;;;;;5.22;2.58;;;;;;;14.32;67.68;102250.38;10150863;28;20050;-71
2021/09/20 09:14:53;;;;;;;6.93;3.05;;;;;;;14.31;66.04;102254.22;10145825;28;20051;-71
2021/09/20 09:19:56;;;;;;;5.28;2.63;;;;;;;14.33;65.67;102262.19;10160483;28;20093;-71
2021/09/20 09:24:54;;;;;;;;;;;;;;;14.34;65.45;102268.50;10144957;28;20061;-71
2021/09/20 09:30:00;;;;;;;5.82;2.65;;;;;;;14.42;66.77;102263.09;10156958;28;19926;-70
2021/09/20 09:34:59;;;;;;;4.60;2.42;;;;;;;14.46;66.84;102266.06;10132336;28;20042;-71
2021/09/20 09:40:12;;;;;;;6.45;2.72;;;;;;;14.49;66.42;102262.69;10163408;28;20409;-71
2021/09/20 09:45:25;;;;;;;5.43;2.47;;;;;;;14.47;65.73;102268.50;10129158;28;20085;-69
2021/09/20 09:50:24;;;;;;;6.25;2.78;;;;;;;14.61;66.34;102262.19;10128905;28;20918;-71
2021/09/20 09:55:24;;;;;;;7.00;3.45;;;;;;;14.61;64.03;102270.44;10143814;28;20050;-71
2021/09/20 10:00:22;;;;;;;7.85;3.13;;;;;;;14.35;63.29;102276.44;10155981;28;20055;-71
2021/09/20 10:05:21;;;;;;;9.77;2.72;;;;;;;14.54;65.59;102265.34;10151011;28;20078;-69
2021/09/20 10:10:38;;;;;;;7.95;3.00;;;;;;;14.58;64.39;102273.84;10130040;28;20094;-71
2021/09/20 10:15:35;;;;;;;6.47;2.80;;;;;;;14.53;64.51;102261.75;10122075;28;20055;-69
2021/09/20 10:20:33;;;;;;;6.50;3.00;;;;;;;14.59;64.92;102264.44;10153302;28;20065;-71
2021/09/20 10:25:31;;;;;;;6.13;3.47;;;;;;;14.47;64.55;102271.25;10154968;28;20419;-69
2021/09/20 10:30:32;;;;;;;7.47;3.25;;;;;;;14.50;64.61;102259.63;10154346;28;20042;-70
2021/09/20 10:35:50;;;;;;;5.97;3.20;;;;;;;14.56;64.50;102256.81;10140339;28;20042;-71
2021/09/20 10:41:17;;;;;;;6.38;2.75;;;;;;;14.66;64.41;102256.56;10155014;28;20522;-70
2021/09/20 10:46:24;;;;;;;6.35;3.20;;;;;;;14.82;64.08;102257.06;10135430;28;20058;-70
2021/09/20 10:51:24;;;;;;;6.50;2.88;;;;;;;15.05;64.73;102260.69;10145869;28;20046;-71
2021/09/20 10:56:22;;;;;;;5.57;2.95;;;;;;;15.20;62.38;102257.59;10143412;28;20069;-71
2021/09/20 11:01:19;;;;;;;6.97;3.33;;;;;;;15.16;61.49;102262.06;10132632;28;20074;-71
2021/09/20 11:06:27;;;;;;;9.23;4.35;;;;;;;15.34;62.46;102252.81;10158859;28;20129;-70
2021/09/20 11:11:43;;;;;;;7.55;2.92;;;;;;;15.34;61.22;102250.06;10128235;28;20082;-71
2021/09/20 11:17:00;;;;;;;6.82;2.80;;;;;;;15.36;61.30;102250.56;10135252;28;20069;-71
2021/09/20 11:22:02;;;;;;;4.88;2.45;;;;;;;15.46;60.62;102237.66;10153629;28;20074;-71
2021/09/20 11:26:59;;;;;;;6.13;2.95;;;;;;;15.39;61.60;102248.28;10152191;28;20137;-71
2021/09/20 11:31:57;;;;;;;7.10;2.97;;;;;;;15.21;60.45;102247.38;10162338;28;20066;-71
2021/09/20 11:36:54;;;;;;;9.02;2.60;;;;;;;15.09;60.09;102245.16;10150195;28;20058;-71
2021/09/20 11:41:58;;;;;;;6.05;2.42;;;;;;;15.27;61.12;102244.19;10148503;28;20133;-69
2021/09/20 11:46:56;;;;;;;5.45;2.78;;;;;;;15.38;61.27;102246.69;10153978;28;20043;-71
2021/09/20 11:51:53;;;;;;;5.47;2.45;;;;;;;15.21;57.91;102248.19;10161649;28;20096;-71
2021/09/20 11:56:49;;;;;;;5.63;2.17;;;;;;;15.26;58.62;102256.31;10153808;28;20081;-71
2021/09/20 12:01:45;;;;;;;5.47;2.13;;;;;;;15.07;59.19;102252.94;10156051;28;20043;-71
2021/09/20 12:06:42;;;;;;;5.35;2.75;;;;;;;15.21;59.15;102259.19;10148749;28;20052;-69
2021/09/20 12:11:39;;;;;;;4.93;2.40;;;;;;;15.18;59.30;102265.34;10159585;28;20105;-71
2021/09/20 12:16:35;;;;;;;4.20;2.22;;;;;;;15.14;59.00;102253.31;10154443;28;20507;-70
2021/09/20 12:21:33;;;;;;;5.68;2.38;;;;;;;15.13;59.41;102262.69;10133084;28;20077;-70
2021/09/20 12:26:30;;;;;;;7.25;2.53;;;;;;;15.30;60.08;102262.84;10141122;28;20389;-71
2021/09/20 12:31:32;;;;;;;6.95;2.55;;;;;;;15.43;60.77;102263.06;10148255;28;20047;-71
2021/09/20 12:36:33;;;;;;;7.47;2.30;;;;;;;15.30;57.84;102264.78;10155623;28;20054;-71
2021/09/20 12:41:35;;;;;;;8.10;2.50;;;;;;;15.36;58.96;102267.09;10147650;28;21022;-72
2021/09/20 12:46:33;;;;;;;5.63;2.78;;;;;;;15.36;58.77;102272.63;10153882;28;20130;-72
2021/09/20 12:51:37;;;;;;;7.05;2.47;;;;;;;15.33;57.75;102266.91;10148187;28;20053;-71
2021/09/20 12:56:35;;;;;;;11.88;3.05;;;;;;;15.40;58.77;102271.97;10152957;28;20117;-72
2021/09/20 13:01:31;;;;;;;5.85;2.30;;;;;;;15.49;59.10;102275.63;10158521;28;20050;-70
2021/09/20 13:06:29;;;;;;;5.20;2.83;;;;;;;15.45;57.23;102274.59;10143190;28;20154;-71
2021/09/20 13:11:25;;;;;;;5.15;2.42;;;;;;;15.48;57.45;102279.50;10158214;28;20424;-70
2021/09/20 13:16:39;;;;;;;4.88;2.28;;;;;;;15.35;56.00;102282.00;10154930;28;20047;-70
2021/09/20 13:21:35;;;;;;;4.95;2.45;;;;;;;15.16;57.03;102286.88;10154746;28;20508;-70
2021/09/20 13:26:36;;;;;;;5.35;2.30;;;;;;;15.25;58.26;102282.25;10140219;28;20085;-72
2021/09/20 13:31:37;;;;;;;4.90;2.50;;;;;;;15.30;56.46;102287.63;10142949;28;20054;-70
2021/09/20 13:36:34;;;;;;;5.28;2.67;;;;;;;15.26;56.15;102300.41;10145524;28;20050;-72
2021/09/20 13:41:30;;;;;;;5.88;2.60;;;;;;;15.26;55.60;102294.88;10141908;28;20050;-70
2021/09/20 13:46:27;;;;;;;4.63;2.45;;;;;;;15.14;54.49;102294.63;10138684;28;20181;-70
2021/09/20 13:51:24;;;;;;;4.78;2.50;;;;;;;15.26;56.37;102294.88;10148720;28;20436;-69
2021/09/20 13:56:21;;;;;;;5.55;2.75;;;;;;;15.23;55.92;102292.75;10150832;28;20042;-71
2021/09/20 14:01:24;;;;;;;8.73;2.33;;;;;;;15.29;56.21;102294.28;10141124;28;20100;-71
2021/09/20 14:06:23;;;;;;;5.70;2.72;;;;;;;15.41;56.59;102290.13;10148599;28;20050;-71
2021/09/20 14:11:19;;;;;;;5.03;2.40;;;;;;;15.40;56.30;102291.28;10155495;28;20129;-72
2021/09/20 14:16:16;;;;;;;4.57;2.28;;;;;;;15.51;57.64;102298.19;10145119;28;20081;-71
2021/09/20 14:21:13;;;;;;;4.68;2.15;;;;;;;15.44;56.38;102289.53;10155628;28;20461;-71
2021/09/20 14:26:09;;;;;;;4.70;2.28;;;;;;;15.49;57.37;102289.41;10149224;28;20039;-71
2021/09/20 14:31:06;;;;;;;6.03;2.47;;;;;;;15.42;56.44;102291.78;10169856;28;20046;-72
2021/09/20 14:36:03;;;;;;;4.93;2.40;;;;;;;15.46;55.53;102287.28;10137640;28;20134;-71
2021/09/20 14:41:00;;;;;;;6.10;2.60;;;;;;;15.34;54.68;102291.41;10154486;28;20096;-71
2021/09/20 14:45:57;;;;;;;4.53;2.28;;;;;;;15.33;55.62;102289.75;10149563;28;20039;-71
2021/09/20 14:50:54;;;;;;;6.15;2.17;;;;;;;15.20;53.98;102307.19;10144577;28;20042;-70
2021/09/20 14:55:50;;;;;;;6.43;2.35;;;;;;;15.20;55.63;102307.19;10154122;28;20069;-71
2021/09/20 15:00:47;;;;;;;7.85;2.33;;;;;;;15.07;54.33;102313.53;10153666;28;20061;-71
2021/09/20 15:05:44;;;;;;;6.70;2.05;;;;;;;15.06;55.41;102317.38;10140100;28;20532;-70
2021/09/20 15:10:41;;;;;;;4.35;2.35;;;;;;;14.98;55.63;102320.88;10116800;28;20096;-71
2021/09/20 15:15:39;;;;;;;4.55;2.55;;;;;;;14.99;56.91;102320.56;10147690;28;20050;-70
2021/09/20 15:20:37;;;;;;;5.22;3.08;;;;;;;14.88;55.65;102316.41;10114312;28;20105;-71
2021/09/20 15:25:34;;;;;;;5.18;3.03;;;;;;;14.88;57.96;102325.50;10149641;28;20459;-71
2021/09/20 15:30:30;;;;;;;6.95;3.05;;;;;;;14.90;58.45;102326.00;10154079;28;20050;-70
2021/09/20 15:35:27;;;;;;;6.18;3.20;;;;;;;14.89;58.10;102326.31;10135932;28;20046;-69
2021/09/20 15:40:24;;;;;;;7.70;2.95;;;;;;;14.86;58.40;102329.69;10153309;28;20054;-71
2021/09/20 15:45:29;;;;;;;8.15;2.70;;;;;;;14.76;57.15;102330.72;10134926;28;20050;-70
2021/09/20 15:50:26;;;;;;;4.85;2.67;;;;;;;14.68;57.39;102336.91;10133501;28;20058;-68
2021/09/20 15:55:23;;;;;;;6.15;2.75;;;;;;;14.60;58.16;102343.97;10142297;28;20651;-72
2021/09/20 16:00:19;;;;;;;6.63;3.33;;;;;;;14.61;58.16;102336.50;10129082;28;20066;-72
2021/09/20 16:05:16;;;;;;;5.45;3.00;;;;;;;14.56;59.37;102336.63;10139327;28;20087;-72
2021/09/20 16:10:16;;;;;;;8.20;3.30;;;;;;;14.42;59.45;102337.38;10135014;28;20054;-72
2021/09/20 16:15:15;;;;;;;5.57;3.17;;;;;;;14.50;60.47;102347.72;10144958;28;20077;-72
2021/09/20 16:20:14;;;;;;;6.60;3.00;;;;;;;14.45;60.35;102350.53;10158591;28;20050;-70
2021/09/20 16:25:11;;;;;;;7.03;3.33;;;;;;;14.39;60.20;102349.03;10148791;28;20077;-70
2021/09/20 16:30:09;;;;;;;8.05;3.53;;;;;;;14.37;61.50;102353.19;10159345;28;20053;-72
2021/09/20 16:35:08;;;;;;;5.88;2.92;;;;;;;14.33;62.14;102355.72;10148427;28;20409;-71
2021/09/20 16:40:09;;;;;;;8.05;2.90;;;;;;;14.31;62.02;102361.53;10157069;28;20056;-72
2021/09/20 16:45:08;;;;;;;7.13;3.75;;;;;;;14.27;63.27;102356.94;10138643;28;20571;-72
2021/09/20 16:50:06;;;;;;;9.90;3.28;;;;;;;14.21;61.33;102366.41;10148484;28;20146;-70
2021/09/20 16:55:04;;;;;;;5.82;3.17;;;;;;;14.17;62.91;102374.44;10137767;28;20485;-70
2021/09/20 17:00:01;;;;;;;6.22;4.10;;;;;;;14.13;63.31;102380.84;10156662;28;20047;-72
2021/09/20 17:04:57;;;;;;;7.70;4.60;;;;;;;14.11;63.77;102381.16;10144214;28;20085;-70
2021/09/20 17:09:55;;;;;;;11.27;4.72;;;;;;;14.09;63.63;102389.72;10145802;28;20050;-71
2021/09/20 17:14:51;;;;;;;5.82;3.72;;;;;;;14.06;64.52;102384.81;10149883;28;20047;-70
2021/09/20 17:19:48;;;;;;;6.72;3.78;;;;;;;13.97;64.79;102397.63;10156982;28;20104;-70
2021/09/20 17:24:44;;;;;;;8.50;3.92;;;;;;;13.95;66.21;102399.00;10148084;28;20078;-71
2021/09/20 17:29:41;;;;;;;8.68;4.10;;;;;;;13.88;67.17;102396.66;10156625;28;20042;-71
2021/09/20 17:34:38;;;;;;;9.57;4.82;;;;;;;13.82;67.83;102400.59;10131921;28;20050;-71
2021/09/20 17:39:37;;;;;;;8.50;5.20;;;;;;;13.77;68.75;102403.44;10144833;28;20051;-71
2021/09/20 17:44:35;;;;;;;8.63;4.78;;;;;;;13.70;68.81;102408.50;10127465;28;20416;-70
2021/09/20 17:49:32;;;;;;;8.20;4.47;;;;;;;13.64;69.44;102403.03;10145531;28;20791;-69
2021/09/20 17:54:28;;;;;;;9.02;4.45;;;;;;;13.59;69.13;102418.81;10155086;28;20050;-70
2021/09/20 17:59:25;;;;;;;6.72;4.22;;;;;;;13.56;69.50;102411.16;10153937;28;20046;-69
2021/09/20 18:04:22;;;;;;;7.03;3.90;;;;;;;13.55;69.22;102413.06;10150212;28;20050;-70
2021/09/20 18:09:18;;;;;;;6.28;3.63;;;;;;;13.52;68.89;102419.19;10155316;28;20042;-70
2021/09/20 18:14:15;;;;;;;9.40;3.80;;;;;;;13.48;69.47;102423.63;10139909;28;20408;-71
2021/09/20 18:19:12;;;;;;;8.70;4.18;;;;;;;13.41;68.86;102439.66;10155137;28;20038;-69
2021/09/20 18:24:17;;;;;;;10.63;4.68;;;;;;;13.37;69.55;102438.63;10130309;28;20050;-70
2021/09/20 18:29:14;;;;;;;8.10;4.88;;;;;;;13.36;69.47;102442.47;10152514;28;20059;-69
2021/09/20 18:34:12;;;;;;;10.32;4.30;;;;;;;13.34;69.59;102451.00;10149791;28;20084;-69
2021/09/20 18:39:08;;;;;;;7.32;4.38;;;;;;;13.36;69.97;102453.47;10136689;28;20050;-70
2021/09/20 18:44:05;;;;;;;8.35;4.00;;;;;;;13.36;69.96;102443.28;10148893;28;20042;-70
2021/09/20 18:49:02;;;;;;;9.05;4.10;;;;;;;13.39;69.46;102447.38;10131625;28;20074;-71
2021/09/20 18:53:59;;;;;;;6.43;4.35;;;;;;;13.36;69.58;102445.22;10146423;28;20042;-72
2021/09/20 18:58:56;;;;;;;7.95;4.22;;;;;;;13.33;69.70;102459.56;10152156;28;20109;-71
2021/09/20 19:03:53;;;;;;;7.20;4.00;;;;;;;13.30;70.02;102460.97;10147909;28;20401;-70
2021/09/20 19:08:50;;;;;;;7.68;4.20;;;;;;;13.28;69.79;102462.38;10152955;28;20145;-70
2021/09/20 19:13:46;;;;;;;6.93;3.75;;;;;;;13.24;70.03;102468.41;10140917;28;20401;-70
2021/09/20 19:18:53;;;;;;;7.07;3.55;;;;;;;13.22;69.76;102476.13;10153194;28;20077;-71
2021/09/20 19:23:51;;;;;;;8.20;4.22;;;;;;;13.21;67.11;102485.47;10137649;28;20038;-71
2021/09/20 19:28:48;;;;;;;8.32;4.75;;;;;;;13.26;67.32;102488.16;10145926;28;20046;-70
2021/09/20 19:33:45;;;;;;;6.40;4.10;;;;;;;13.22;68.11;102486.28;10144629;28;20078;-71
2021/09/20 19:38:42;;;;;;;6.97;4.32;;;;;;;13.28;69.05;102489.84;10139198;28;20050;-71
2021/09/20 19:43:39;;;;;;;10.27;4.88;;;;;;;13.25;68.18;102489.28;10143868;28;20046;-71
2021/09/20 19:48:36;;;;;;;11.25;4.45;;;;;;;13.29;69.91;102485.97;10145022;28;20077;-71
2021/09/20 19:53:32;;;;;;;7.13;4.05;;;;;;;13.25;69.97;102486.53;10144943;28;20086;-71
2021/09/20 19:58:32;;;;;;;11.93;4.20;;;;;;;13.23;69.84;102491.50;10130174;28;20043;-70
2021/09/20 20:03:29;;;;;;;6.70;4.00;;;;;;;13.16;69.95;102491.03;10142757;28;20070;-70
2021/09/20 20:08:26;;;;;;;7.40;3.92;;;;;;;13.12;70.16;102487.22;10155801;28;20144;-71
2021/09/20 20:13:23;;;;;;;8.60;4.10;;;;;;;13.04;70.87;102485.09;10157900;28;20047;-71
2021/09/20 20:18:20;;;;;;;7.95;4.07;;;;;;;12.95;70.56;102497.84;10150001;28;20698;-71
2021/09/20 20:23:25;;;;;;;9.52;4.88;;;;;;;12.88;70.79;102500.09;10151879;28;20101;-71
2021/09/20 20:28:22;;;;;;;7.45;4.97;;;;;;;12.76;71.01;102501.31;10156554;28;20101;-71
2021/09/20 20:33:19;;;;;;;8.18;4.15;;;;;;;12.64;71.44;102498.16;10144422;28;20070;-71
2021/09/20 20:38:16;;;;;;;7.93;5.00;;;;;;;12.51;71.93;102490.56;10159015;28;20050;-71
2021/09/20 20:43:12;;;;;;;9.77;5.93;;;;;;;12.40;72.71;102498.91;10148316;28;20067;-71
2021/09/20 20:48:09;;;;;;;11.43;6.28;;;;;;;12.28;72.92;102501.19;10154540;28;20073;-71
2021/09/20 20:53:05;;;;;;;8.80;5.80;;;;;;;12.15;73.33;102508.13;10144289;28;20054;-71
2021/09/20 20:58:02;;;;;;;11.70;6.18;;;;;;;12.04;73.74;102513.97;10145339;28;20501;-71
2021/09/20 21:02:59;;;;;;;11.13;6.43;;;;;;;11.97;74.12;102522.50;10132304;28;20046;-70
2021/09/20 21:07:55;;;;;;;14.43;7.45;;;;;;;11.89;74.33;102520.38;10140333;28;20053;-70
2021/09/20 21:12:54;;;;;;;10.75;6.07;;;;;;;11.80;74.54;102528.31;10129892;28;20112;-70
2021/09/20 21:17:50;;;;;;;10.32;6.60;;;;;;;11.75;75.34;102533.84;10147972;28;20759;-70
2021/09/20 21:22:47;;;;;;;13.35;7.57;;;;;;;11.71;75.72;102535.50;10157773;28;20074;-72
2021/09/20 21:27:43;;;;;;;11.82;7.47;;;;;;;11.67;76.51;102545.38;10143064;28;20081;-70
2021/09/20 21:32:40;;;;;;;11.43;7.30;;;;;;;11.68;77.32;102547.03;10157609;28;20081;-71
2021/09/20 21:37:38;;;;;;;12.23;7.57;;;;;;;11.65;77.58;102542.09;10148524;28;20074;-71
2021/09/20 21:42:35;;;;;;;13.60;7.75;;;;;;;11.68;77.72;102552.50;10152840;28;20066;-71
2021/09/20 21:47:32;;;;;;;19.52;9.32;;;;;;;11.68;78.12;102558.00;10145365;28;20046;-69
2021/09/20 21:52:28;;;;;;;18.15;9.63;;;;;;;11.69;78.46;102554.94;10154546;28;20142;-70
2021/09/20 21:57:25;;;;;;;23.63;11.10;;;;;;;11.69;78.95;102554.94;10149779;28;20141;-71
2021/09/20 22:02:21;;;;;;;25.50;11.48;;;;;;;11.69;78.50;102559.63;10139600;28;20047;-70
2021/09/20 22:07:18;;;;;;;26.15;12.45;;;;;;;11.68;78.55;102563.47;10149135;28;20054;-71
2021/09/20 22:12:15;;;;;;;20.08;10.07;;;;;;;11.65;78.55;102569.50;10126919;28;20505;-70
2021/09/20 22:17:12;;;;;;;17.35;9.15;;;;;;;11.64;78.36;102573.34;10147810;28;20058;-69
2021/09/20 22:22:08;;;;;;;16.98;10.07;;;;;;;11.57;78.05;102579.13;10155095;28;20050;-71
2021/09/20 22:27:05;;;;;;;12.95;7.88;;;;;;;11.48;78.31;102564.34;10148114;28;20046;-71
2021/09/20 22:32:02;;;;;;;12.25;7.57;;;;;;;11.46;78.44;102561.88;10150779;28;20054;-71
2021/09/20 22:36:59;;;;;;;11.73;7.00;;;;;;;11.39;78.32;102561.34;10142151;28;20416;-70
2021/09/20 22:41:55;;;;;;;12.35;7.45;;;;;;;11.34;78.77;102553.16;10154634;28;20069;-71
2021/09/20 22:46:52;;;;;;;14.18;7.20;;;;;;;11.28;78.64;102565.22;10144586;28;20050;-70
2021/09/20 22:51:48;;;;;;;11.73;7.63;;;;;;;11.20;78.36;102574.00;10155412;28;20051;-70